Time;durP1;ratioP1;P1;durP2;ratioP2;P2;SDS_P1;SDS_P2;PMS_P1;PMS_P2;Temp;Humidity;BMP_temperature;BMP_pressure;BME280_temperature;BME280_humidity;BME280_pressure;Samples;Min_cycle;Max_cycle;Signal;HPM_P1;HPM_P2
2022/05/05 00:00:47;;;;;;;9.73;4.47;;;12.60;98.50;;;;;;5044477;28;20067;-71
2022/05/05 00:04:12;;;;;;;8.00;4.35;;;12.50;99.40;;;;;;5042867;28;20112;-71
2022/05/05 00:07:38;;;;;;;5.60;4.05;;;12.40;99.90;;;;;;5044742;28;21008;-71
2022/05/05 00:14:27;;;;;;;5.95;4.78;;;12.20;99.90;;;;;;5040302;28;20531;-71
2022/05/05 00:17:53;;;;;;;6.72;4.43;;;12.10;99.90;;;;;;5042461;28;20052;-71
2022/05/05 00:21:18;;;;;;;4.53;3.28;;;12.00;99.90;;;;;;5048051;28;20607;-71
2022/05/05 00:24:43;;;;;;;4.50;3.78;;;11.90;99.90;;;;;;5038483;28;20107;-71
2022/05/05 00:28:09;;;;;;;6.93;3.92;;;11.80;99.90;;;;;;5008623;28;20038;-71
2022/05/05 00:31:49;;;;;;;4.82;3.67;;;11.70;99.90;;;;;;5045034;28;20520;-71
2022/05/05 00:35:15;;;;;;;6.68;4.60;;;11.70;99.90;;;;;;5019494;28;20115;-71
2022/05/05 00:38:40;;;;;;;4.80;3.50;;;11.60;99.90;;;;;;5008150;28;20099;-72
2022/05/05 00:42:05;;;;;;;6.15;4.13;;;11.60;99.90;;;;;;5036747;28;20037;-71
2022/05/05 00:45:31;;;;;;;5.70;3.60;;;11.60;99.90;;;;;;5034872;28;20028;-71
2022/05/05 00:48:56;;;;;;;8.02;5.22;;;11.60;99.90;;;;;;5008022;28;20095;-71
2022/05/05 00:52:21;;;;;;;7.95;5.20;;;11.60;99.90;;;;;;5008282;28;20042;-71
2022/05/05 00:55:47;;;;;;;8.77;5.38;;;11.60;99.90;;;;;;5028289;28;20041;-72
2022/05/05 00:59:12;;;;;;;7.32;4.75;;;11.60;99.90;;;;;;5008169;28;20049;-72
2022/05/05 01:02:38;;;;;;;9.48;4.70;;;11.60;99.90;;;;;;5042027;28;20057;-72
2022/05/05 01:06:03;;;;;;;9.02;5.57;;;11.60;99.90;;;;;;5032500;28;20033;-71
2022/05/05 01:09:28;;;;;;;6.45;4.30;;;11.60;99.90;;;;;;5008393;28;20038;-71
2022/05/05 01:12:54;;;;;;;5.78;4.80;;;11.60;99.90;;;;;;5051355;28;20041;-72
2022/05/05 01:16:19;;;;;;;7.20;4.43;;;11.70;99.90;;;;;;5040503;28;20465;-72
2022/05/05 01:19:44;;;;;;;5.97;4.65;;;11.70;99.90;;;;;;5043792;28;20045;-71
2022/05/05 01:23:10;;;;;;;6.22;4.15;;;11.80;99.90;;;;;;5011873;28;20134;-72
2022/05/05 01:29:59;;;;;;;5.55;3.80;;;11.80;99.20;;;;;;5018770;28;20036;-71
2022/05/05 01:33:31;;;;;;;4.68;3.10;;;11.90;96.60;;;;;;5011631;28;20489;-71
2022/05/05 01:36:56;;;;;;;4.28;3.45;;;11.90;95.50;;;;;;5047830;28;20484;-71
2022/05/05 01:40:21;;;;;;;5.68;3.38;;;11.90;95.30;;;;;;5043553;28;20052;-72
2022/05/05 01:43:47;;;;;;;5.80;3.88;;;12.00;94.60;;;;;;5041794;28;20045;-72
2022/05/05 01:47:12;;;;;;;5.55;3.67;;;12.00;94.70;;;;;;5050917;28;20047;-72
2022/05/05 01:50:38;;;;;;;4.47;3.60;;;12.00;93.90;;;;;;5044957;28;20400;-72
2022/05/05 01:54:03;;;;;;;6.53;3.97;;;12.10;94.60;;;;;;5047264;28;20098;-72
2022/05/05 01:57:28;;;;;;;6.57;4.28;;;12.10;95.10;;;;;;5050504;28;20472;-71
2022/05/05 02:00:55;;;;;;;5.47;4.03;;;12.10;95.00;;;;;;5033880;28;20045;-71
2022/05/05 02:04:19;;;;;;;4.25;3.55;;;12.10;95.70;;;;;;5010734;28;20049;-72
2022/05/05 02:07:44;;;;;;;5.60;3.25;;;12.10;96.10;;;;;;5044920;28;20029;-72
2022/05/05 02:11:10;;;;;;;5.78;4.40;;;12.10;97.50;;;;;;5042993;28;20040;-71
2022/05/05 02:14:35;;;;;;;4.50;3.22;;;12.10;97.90;;;;;;5040652;28;20029;-71
2022/05/05 02:18:00;;;;;;;4.72;3.42;;;12.10;98.90;;;;;;5036914;28;20100;-70
2022/05/05 02:21:26;;;;;;;5.30;3.55;;;12.10;98.70;;;;;;5009270;28;20065;-71
2022/05/05 02:24:51;;;;;;;4.60;4.10;;;12.10;99.20;;;;;;5044956;28;20481;-71
2022/05/05 02:28:26;;;;;;;4.47;3.88;;;12.10;99.90;;;;;;5039429;28;20040;-71
2022/05/05 02:31:51;;;;;;;6.38;4.20;;;12.00;98.70;;;;;;5010146;28;20448;-71
2022/05/05 02:35:16;;;;;;;5.80;4.40;;;12.00;98.30;;;;;;5049472;28;20047;-71
2022/05/05 02:38:47;;;;;;;5.88;4.35;;;12.00;98.60;;;;;;5036902;28;20062;-71
2022/05/05 02:42:10;;;;;;;6.00;4.05;;;12.00;98.20;;;;;;5037570;28;20128;-71
2022/05/05 02:45:36;;;;;;;5.05;4.55;;;12.00;99.90;;;;;;5049962;28;20029;-71
2022/05/05 02:49:01;;;;;;;6.32;4.00;;;12.00;99.90;;;;;;5030582;28;20677;-70
2022/05/05 02:52:26;;;;;;;5.30;3.67;;;12.00;99.90;;;;;;5045895;28;20156;-71
2022/05/05 02:55:52;;;;;;;5.40;4.82;;;11.90;99.90;;;;;;5041166;28;20041;-71
2022/05/05 02:59:17;;;;;;;9.70;4.43;;;11.90;99.90;;;;;;5036375;28;20083;-71
2022/05/05 03:02:42;;;;;;;6.85;4.20;;;11.90;99.90;;;;;;5043935;28;20033;-71
2022/05/05 03:06:08;;;;;;;7.03;5.03;;;11.80;99.90;;;;;;5034669;28;20342;-72
2022/05/05 03:09:33;;;;;;;5.80;4.93;;;11.80;99.90;;;;;;5039165;28;20059;-71
2022/05/05 03:12:58;;;;;;;5.05;4.32;;;11.80;99.90;;;;;;5013086;28;20064;-64
2022/05/05 03:16:24;;;;;;;7.07;4.85;;;11.80;99.90;;;;;;5028969;28;20124;-64
2022/05/05 03:19:49;;;;;;;5.65;4.85;;;11.80;99.90;;;;;;5043197;28;20095;-64
2022/05/05 03:23:15;;;;;;;6.43;5.53;;;11.80;99.90;;;;;;5035863;28;20064;-64
2022/05/05 03:26:40;;;;;;;7.50;5.30;;;11.80;99.90;;;;;;5037644;28;20459;-64
2022/05/05 03:30:05;;;;;;;4.68;4.20;;;11.70;99.90;;;;;;5048456;28;20124;-64
2022/05/05 03:33:32;;;;;;;6.80;4.97;;;11.70;99.90;;;;;;5042744;28;20484;-64
2022/05/05 03:36:56;;;;;;;6.47;4.35;;;11.70;99.90;;;;;;5036592;28;20041;-64
2022/05/05 03:40:21;;;;;;;5.47;3.85;;;11.70;99.90;;;;;;5048301;28;20053;-65
2022/05/05 03:43:47;;;;;;;6.13;4.28;;;11.70;99.90;;;;;;5038313;28;20036;-65
2022/05/05 03:47:12;;;;;;;8.35;4.63;;;11.70;99.90;;;;;;5036895;28;20373;-65
2022/05/05 03:49:58;;;;;;;7.82;5.25;;;11.70;99.90;;;;;;5047861;28;20041;-60
2022/05/05 03:52:23;;;;;;;8.23;5.32;;;11.70;99.90;;;;;;5030579;28;20032;-59
2022/05/05 03:54:49;;;;;;;9.32;5.45;;;11.70;99.90;;;;;;5048365;28;20017;-60
2022/05/05 03:57:14;;;;;;;6.63;5.05;;;11.70;99.90;;;;;;5029125;28;20033;-59
2022/05/05 03:59:39;;;;;;;6.13;5.10;;;11.60;99.90;;;;;;5037055;28;20220;-59
2022/05/05 04:02:05;;;;;;;6.72;4.85;;;11.70;99.90;;;;;;5027474;28;20025;-60
2022/05/05 04:04:30;;;;;;;9.25;5.72;;;11.70;99.90;;;;;;5048095;28;20100;-60
2022/05/05 04:06:56;;;;;;;7.60;4.95;;;11.60;99.90;;;;;;5028613;28;20036;-60
2022/05/05 04:09:21;;;;;;;9.43;5.75;;;11.60;99.90;;;;;;5046047;28;20017;-59
2022/05/05 04:11:47;;;;;;;8.80;5.55;;;11.60;99.90;;;;;;5019475;28;20045;-62
2022/05/05 04:14:12;;;;;;;8.07;6.00;;;11.60;99.90;;;;;;5025805;28;20076;-59
2022/05/05 04:16:38;;;;;;;18.42;6.75;;;11.60;99.90;;;;;;5045820;28;20061;-61
2022/05/05 04:19:04;;;;;;;10.77;7.10;;;11.60;99.90;;;;;;5047882;28;20140;-61
2022/05/05 04:21:31;;;;;;;10.98;7.05;;;11.60;99.90;;;;;;5031218;28;20029;-61
2022/05/05 04:23:56;;;;;;;9.82;7.03;;;11.60;99.90;;;;;;5048109;28;20384;-61
2022/05/05 04:26:23;;;;;;;10.57;6.60;;;11.70;99.90;;;;;;5046072;28;20017;-60
2022/05/05 04:28:49;;;;;;;8.25;5.93;;;11.80;99.90;;;;;;5048254;28;20037;-61
2022/05/05 04:31:18;;;;;;;8.50;5.60;;;11.70;99.90;;;;;;5029164;28;20103;-61
2022/05/05 04:33:44;;;;;;;12.77;6.00;;;11.70;99.90;;;;;;5048299;28;20155;-61
2022/05/05 04:36:11;;;;;;;13.35;7.90;;;11.80;99.90;;;;;;5046128;28;20025;-60
2022/05/05 04:38:37;;;;;;;8.20;6.10;;;11.80;99.90;;;;;;5048166;28;20029;-60
2022/05/05 04:41:03;;;;;;;7.40;5.95;;;11.70;99.90;;;;;;5046030;28;20029;-60
2022/05/05 04:43:29;;;;;;;9.25;6.88;;;11.80;99.90;;;;;;5049478;28;20029;-60
2022/05/05 04:45:54;;;;;;;10.88;7.65;;;11.70;99.90;;;;;;5041620;28;20095;-61
2022/05/05 04:48:20;;;;;;;10.88;7.88;;;11.70;99.90;;;;;;5032193;28;20714;-61
2022/05/05 04:50:45;;;;;;;13.45;7.60;;;11.70;99.90;;;;;;5047763;28;20112;-61
2022/05/05 04:53:10;;;;;;;9.77;7.40;;;11.70;99.90;;;;;;5051755;28;20024;-60
2022/05/05 04:55:36;;;;;;;10.48;5.78;;;11.70;99.90;;;;;;5035166;28;20031;-60
2022/05/05 04:58:02;;;;;;;8.07;6.80;;;11.70;99.90;;;;;;5051562;28;20534;-60
2022/05/05 05:00:27;;;;;;;11.98;7.85;;;11.70;99.90;;;;;;5037110;28;20040;-60
2022/05/05 05:02:53;;;;;;;18.27;9.35;;;11.70;99.90;;;;;;5051356;28;20029;-60
2022/05/05 05:05:18;;;;;;;11.00;7.95;;;11.70;99.90;;;;;;5014641;28;20029;-60
2022/05/05 05:07:44;;;;;;;8.00;6.32;;;11.70;99.90;;;;;;5051419;28;20077;-60
2022/05/05 05:10:10;;;;;;;10.50;7.18;;;11.70;99.90;;;;;;5031129;28;20511;-60
2022/05/05 05:12:36;;;;;;;12.90;8.45;;;11.70;99.90;;;;;;5051314;28;20029;-60
2022/05/05 05:15:02;;;;;;;9.80;7.22;;;11.70;99.90;;;;;;5037074;28;20052;-60
2022/05/05 05:17:27;;;;;;;11.40;7.05;;;11.70;99.90;;;;;;5011097;28;20388;-60
2022/05/05 05:19:53;;;;;;;10.35;6.18;;;11.70;99.90;;;;;;5049361;28;20029;-60
2022/05/05 05:22:18;;;;;;;6.70;5.43;;;11.80;99.90;;;;;;5048505;28;20393;-60
2022/05/05 05:24:44;;;;;;;9.60;5.97;;;11.90;99.90;;;;;;5051107;28;20040;-60
2022/05/05 05:27:10;;;;;;;10.85;6.38;;;11.90;99.90;;;;;;5047284;28;20025;-61
2022/05/05 05:29:35;;;;;;;9.02;5.95;;;11.90;99.90;;;;;;5050670;28;20112;-60
2022/05/05 05:32:01;;;;;;;8.88;6.38;;;12.00;99.90;;;;;;5046070;28;20025;-60
2022/05/05 05:34:26;;;;;;;6.88;4.55;;;12.00;99.90;;;;;;5050581;28;20078;-60
2022/05/05 05:36:52;;;;;;;7.15;5.15;;;12.00;99.90;;;;;;5044886;28;20341;-60
2022/05/05 05:39:18;;;;;;;9.30;6.40;;;12.00;99.90;;;;;;5050610;28;20496;-60
2022/05/05 05:41:44;;;;;;;9.02;5.30;;;12.00;99.90;;;;;;5043465;28;20051;-60
2022/05/05 05:44:09;;;;;;;12.45;7.13;;;12.00;99.90;;;;;;5050600;28;20040;-60
2022/05/05 05:46:35;;;;;;;9.77;6.95;;;12.00;99.90;;;;;;5042344;28;20021;-60
2022/05/05 05:49:00;;;;;;;13.27;7.78;;;12.00;99.90;;;;;;5050429;28;20040;-60
2022/05/05 05:51:26;;;;;;;9.05;6.38;;;12.00;99.90;;;;;;5040940;28;20021;-60
2022/05/05 05:53:52;;;;;;;11.45;8.02;;;12.00;99.90;;;;;;5050261;28;20049;-60
2022/05/05 05:56:18;;;;;;;8.27;6.10;;;12.10;99.90;;;;;;5039632;28;20017;-60
2022/05/05 05:58:43;;;;;;;12.40;6.07;;;12.10;99.90;;;;;;5030925;28;20147;-60
2022/05/05 06:01:09;;;;;;;6.90;5.70;;;12.20;99.90;;;;;;5044227;28;20032;-60
2022/05/05 06:04:14;;;;;;;10.07;6.18;;;12.30;99.90;;;;;;5044449;28;20126;-60
2022/05/05 06:07:40;;;;;;;9.95;6.35;;;12.40;99.90;;;;;;5037146;28;20036;-60
2022/05/05 06:11:05;;;;;;;9.00;6.40;;;12.60;99.90;;;;;;5010711;28;20552;-60
2022/05/05 06:14:31;;;;;;;7.50;5.35;;;12.70;99.90;;;;;;5046499;28;20048;-61
2022/05/05 06:17:56;;;;;;;9.05;4.72;;;12.90;99.90;;;;;;5036772;28;20034;-60
2022/05/05 06:21:21;;;;;;;5.82;4.70;;;13.10;99.90;;;;;;5038609;28;20045;-60
2022/05/05 06:24:47;;;;;;;8.27;5.78;;;13.20;99.90;;;;;;5048020;28;20035;-60
2022/05/05 06:28:12;;;;;;;5.75;4.72;;;13.40;99.90;;;;;;5036783;28;20033;-60
2022/05/05 06:31:37;;;;;;;5.35;4.45;;;13.50;99.90;;;;;;5044279;28;20036;-60
2022/05/05 06:35:03;;;;;;;8.55;4.50;;;13.80;99.90;;;;;;5049675;28;20060;-60
2022/05/05 06:38:28;;;;;;;7.00;4.28;;;14.20;99.90;;;;;;5036500;28;20049;-61
2022/05/05 06:41:54;;;;;;;8.88;5.72;;;14.90;99.90;;;;;;5038239;28;20492;-60
2022/05/05 06:45:19;;;;;;;7.68;5.32;;;15.30;99.90;;;;;;5049682;28;20102;-60
2022/05/05 06:48:44;;;;;;;5.90;4.82;;;16.30;94.50;;;;;;5036400;28;20706;-61
2022/05/05 06:52:10;;;;;;;10.02;4.75;;;17.00;89.90;;;;;;5009966;28;20069;-60
2022/05/05 06:55:35;;;;;;;6.57;4.65;;;22.00;61.80;;;;;;5029741;28;20468;-61
2022/05/05 06:59:00;;;;;;;6.05;4.40;;;23.70;36.20;;;;;;5036209;28;20080;-60
2022/05/05 07:02:26;;;;;;;8.88;4.72;;;23.50;38.80;;;;;;5040176;28;20408;-59
2022/05/05 07:05:52;;;;;;;6.40;4.38;;;25.00;32.50;;;;;;5049065;28;20060;-59
2022/05/05 07:12:51;;;;;;;7.50;4.78;;;28.00;18.60;;;;;;4959536;28;20030;-62
2022/05/05 07:16:17;;;;;;;4.57;4.00;;;28.00;18.20;;;;;;5046128;28;20467;-62
2022/05/05 07:19:42;;;;;;;4.38;3.22;;;28.50;18.40;;;;;;5045612;28;20041;-62
2022/05/05 07:23:12;;;;;;;5.13;3.55;;;30.20;11.80;;;;;;5036156;28;20806;-62
2022/05/05 07:26:33;;;;;;;7.57;4.40;;;30.30;12.30;;;;;;5035549;28;20032;-62
2022/05/05 07:29:58;;;;;;;7.63;4.97;;;29.10;13.00;;;;;;5048779;28;20033;-62
2022/05/05 07:33:24;;;;;;;6.07;2.92;;;30.40;12.00;;;;;;5023948;28;20041;-62
2022/05/05 07:36:49;;;;;;;5.28;3.30;;;31.50;10.00;;;;;;5043021;28;20044;-62
2022/05/05 07:40:14;;;;;;;5.65;3.17;;;33.00;8.10;;;;;;5048507;28;20466;-62
2022/05/05 07:43:40;;;;;;;6.65;3.22;;;34.00;7.00;;;;;;5035774;28;20029;-60
2022/05/05 07:47:05;;;;;;;4.28;2.72;;;34.30;9.40;;;;;;5037546;28;20662;-61
2022/05/05 07:50:30;;;;;;;5.40;3.50;;;34.70;2.30;;;;;;5044891;28;20044;-61
2022/05/05 07:57:20;;;;;;;5.75;3.15;;;31.70;5.90;;;;;;5008964;28;20049;-60
2022/05/05 08:00:45;;;;;;;4.25;2.47;;;30.10;9.20;;;;;;5038780;28;20051;-60
2022/05/05 08:04:10;;;;;;;4.57;3.40;;;29.40;9.10;;;;;;5042858;28;20535;-60
2022/05/05 08:07:36;;;;;;;7.18;3.75;;;28.90;10.10;;;;;;5034768;28;20090;-60
2022/05/05 08:11:01;;;;;;;7.55;3.63;;;27.70;11.30;;;;;;5048196;28;20064;-60
2022/05/05 08:14:26;;;;;;;6.18;3.80;;;26.60;12.60;;;;;;5040501;28;20040;-60
2022/05/05 08:17:52;;;;;;;5.93;3.40;;;25.50;15.60;;;;;;5034978;28;20044;-60
2022/05/05 08:21:17;;;;;;;5.68;3.63;;;25.20;15.90;;;;;;5037117;28;20499;-60
2022/05/05 08:31:31;;;;;;;4.60;3.53;;;27.70;11.40;;;;;;5008628;28;20076;-62
2022/05/05 08:34:56;;;;;;;5.82;4.18;;;28.10;9.80;;;;;;5036988;28;20037;-62
2022/05/05 08:38:21;;;;;;;4.97;3.58;;;27.80;10.00;;;;;;5042210;28;20116;-62
2022/05/05 08:41:50;;;;;;;3.63;3.33;;;27.80;10.10;;;;;;5042314;28;20447;-62
2022/05/05 08:45:15;;;;;;;7.53;3.60;;;29.70;9.30;;;;;;5047773;28;20037;-62
2022/05/05 08:48:40;;;;;;;3.92;2.38;;;31.80;5.50;;;;;;5034732;28;20044;-60
2022/05/05 08:52:06;;;;;;;5.28;3.60;;;33.10;4.60;;;;;;5008171;28;20096;-60
2022/05/05 08:55:31;;;;;;;5.43;3.33;;;33.90;3.90;;;;;;5028052;28;20038;-60
2022/05/05 08:58:56;;;;;;;3.60;2.67;;;34.80;1.90;;;;;;5034825;28;20041;-61
2022/05/05 09:02:22;;;;;;;3.28;2.80;;;34.90;1.00;;;;;;5032245;28;20420;-60
2022/05/05 09:05:43;;;;;;;4.65;3.15;;;35.40;1.00;;;;;;5038719;28;20029;-60
2022/05/05 09:09:08;;;;;;;4.35;3.28;;;35.20;1.00;;;;;;5035150;28;20044;-60
2022/05/05 09:12:52;;;;;;;3.00;2.63;;;34.50;1.30;;;;;;5042168;28;20452;-61
2022/05/05 09:16:17;;;;;;;6.00;3.85;;;33.70;1.60;;;;;;5028560;28;20140;-60
2022/05/05 09:19:42;;;;;;;4.90;3.97;;;33.00;2.40;;;;;;5044444;28;20401;-61
2022/05/05 09:23:08;;;;;;;4.20;2.80;;;30.80;3.60;;;;;;5034571;28;20107;-60
2022/05/05 09:26:35;;;;;;;6.50;4.05;;;31.20;4.20;;;;;;5007797;28;20500;-60
2022/05/05 09:30:01;;;;;;;4.75;3.70;;;31.80;3.70;;;;;;5048219;28;20040;-60
2022/05/05 09:33:26;;;;;;;4.55;3.50;;;32.30;3.10;;;;;;5038179;28;20536;-60
2022/05/05 09:36:52;;;;;;;7.28;3.95;;;31.90;3.20;;;;;;5039817;28;20037;-60
2022/05/05 09:40:18;;;;;;;3.67;3.33;;;30.90;3.30;;;;;;5050821;28;20115;-60
2022/05/05 09:43:43;;;;;;;4.10;3.20;;;30.90;3.60;;;;;;5043339;28;20037;-60
2022/05/05 09:46:28;;;;;;;6.75;3.10;;;31.40;3.50;;;;;;5047408;28;20067;-60
2022/05/05 09:49:15;;;;;;;3.55;2.72;;;30.90;3.70;;;;;;5011358;28;20046;-67
2022/05/05 09:51:44;;;;;;;3.15;2.30;;;30.80;4.10;;;;;;5050307;28;20033;-67
2022/05/05 09:59:50;;;;;;;4.35;2.90;;;32.30;1.90;;;;;;5047488;28;20171;-67
2022/05/05 10:05:10;;;;;;;4.53;3.63;;;28.70;5.20;;;;;;5051228;28;20043;-68
2022/05/05 10:07:41;;;;;;;7.20;3.70;;;27.10;7.80;;;;;;5048771;28;20427;-67
2022/05/05 10:10:07;;;;;;;3.90;2.88;;;26.20;9.20;;;;;;5050947;28;20523;-68
2022/05/05 10:12:35;;;;;;;4.65;3.10;;;25.50;10.70;;;;;;5048532;28;20498;-67
2022/05/05 10:15:02;;;;;;;5.25;3.10;;;25.00;11.70;;;;;;5050498;28;20420;-68
2022/05/05 10:17:28;;;;;;;6.32;3.90;;;24.50;12.40;;;;;;5048797;28;20025;-67
2022/05/05 10:19:54;;;;;;;6.22;4.13;;;24.10;12.90;;;;;;5050656;28;20025;-68
2022/05/05 10:22:31;;;;;;;4.95;3.45;;;23.70;14.30;;;;;;5048542;28;20078;-68
2022/05/05 10:25:09;;;;;;;3.75;3.05;;;23.70;13.90;;;;;;5050575;28;20017;-67
2022/05/05 10:27:42;;;;;;;3.55;2.78;;;23.50;15.00;;;;;;5023310;28;20025;-67
2022/05/05 10:30:16;;;;;;;3.15;2.83;;;23.30;15.10;;;;;;5050307;28;20480;-67
2022/05/05 10:32:42;;;;;;;7.28;3.60;;;23.30;15.20;;;;;;5025115;28;20028;-67
2022/05/05 10:35:45;;;;;;;6.95;3.00;;;22.80;15.40;;;;;;5050156;28;20032;-67
2022/05/05 10:39:17;;;;;;;4.50;3.53;;;22.60;17.10;;;;;;5036840;28;20500;-67
2022/05/05 10:42:52;;;;;;;4.87;3.00;;;22.40;17.50;;;;;;5035941;28;20033;-67
2022/05/05 10:46:17;;;;;;;5.45;2.85;;;22.60;17.70;;;;;;5010301;28;20552;-67
2022/05/05 10:52:09;;;;;;;4.07;2.90;;;22.90;15.50;;;;;;5030811;28;20485;-67
2022/05/05 10:55:32;;;;;;;3.85;2.80;;;22.50;16.60;;;;;;5049532;28;20075;-67
2022/05/05 10:58:55;;;;;;;5.07;3.47;;;22.20;17.20;;;;;;5034330;28;20056;-67
2022/05/05 11:01:46;;;;;;;3.45;2.97;;;22.10;17.40;;;;;;5026386;28;20103;-67
2022/05/05 11:05:11;;;;;;;4.25;3.10;;;22.30;17.10;;;;;;5038260;28;20045;-67
2022/05/05 11:08:09;;;;;;;4.30;3.25;;;22.80;16.60;;;;;;5036748;28;20444;-67
2022/05/05 11:11:40;;;;;;;3.67;2.38;;;22.90;16.20;;;;;;5029747;28;20068;-59
2022/05/05 11:21:38;;;;;;;5.95;2.88;;;22.20;17.00;;;;;;5032150;28;20048;-59
2022/05/05 11:25:07;;;;;;;7.00;3.45;;;22.00;18.50;;;;;;5049174;28;20037;-58
2022/05/05 11:28:36;;;;;;;4.32;3.10;;;21.50;19.10;;;;;;5036171;28;20032;-59
2022/05/05 11:32:05;;;;;;;3.30;2.55;;;21.40;18.40;;;;;;5037741;28;20033;-59
2022/05/05 11:35:29;;;;;;;4.70;3.30;;;21.40;19.60;;;;;;5040313;28;20045;-59
2022/05/05 11:38:54;;;;;;;5.18;2.88;;;21.50;19.20;;;;;;5036052;28;20128;-59
2022/05/05 11:42:20;;;;;;;5.38;2.85;;;21.50;19.00;;;;;;5041635;28;20470;-59
2022/05/05 11:45:45;;;;;;;5.28;2.50;;;21.70;18.30;;;;;;5045131;28;20120;-59
2022/05/05 11:49:10;;;;;;;5.47;3.10;;;22.20;17.40;;;;;;5037163;28;20064;-59
2022/05/05 11:52:36;;;;;;;6.55;3.83;;;22.20;17.20;;;;;;5043059;28;20508;-59
2022/05/05 11:56:01;;;;;;;6.85;3.88;;;22.10;17.50;;;;;;5009189;28;20175;-59
2022/05/05 12:02:34;;;;;;;4.50;3.00;;;21.40;18.30;;;;;;5007491;28;20278;-59
2022/05/05 12:05:59;;;;;;;5.28;3.38;;;21.50;18.40;;;;;;5048362;28;20037;-59
2022/05/05 12:09:25;;;;;;;7.05;3.65;;;21.70;17.00;;;;;;5040746;28;20484;-59
2022/05/05 12:12:51;;;;;;;5.45;2.97;;;21.80;17.40;;;;;;5014834;28;20040;-59
2022/05/05 12:15:38;;;;;;;5.57;3.08;;;22.20;16.70;;;;;;5046176;28;20045;-59
2022/05/05 12:18:13;;;;;;;5.70;4.32;;;22.40;16.10;;;;;;5048343;28;20564;-59
2022/05/05 12:20:39;;;;;;;6.53;3.35;;;22.40;15.50;;;;;;5040907;28;20695;-59
2022/05/05 12:23:04;;;;;;;5.70;2.95;;;22.50;15.00;;;;;;5048301;28;20071;-59
2022/05/05 12:25:30;;;;;;;5.13;3.70;;;22.40;14.90;;;;;;5043009;28;20536;-59
2022/05/05 12:27:57;;;;;;;6.80;3.63;;;22.40;14.50;;;;;;5048393;28;20036;-59
2022/05/05 12:30:34;;;;;;;5.32;3.22;;;22.40;14.60;;;;;;5041562;28;20094;-59
2022/05/05 12:33:00;;;;;;;6.32;3.65;;;22.30;15.10;;;;;;5048267;28;20025;-59
2022/05/05 12:35:33;;;;;;;7.25;3.47;;;22.30;15.40;;;;;;5042283;28;20029;-59
2022/05/05 12:38:00;;;;;;;4.15;3.08;;;22.40;15.30;;;;;;5008638;28;20046;-59
2022/05/05 12:40:26;;;;;;;8.60;3.90;;;22.20;15.30;;;;;;5045515;28;20021;-59
2022/05/05 12:43:03;;;;;;;6.00;3.05;;;22.20;15.50;;;;;;5048215;28;20032;-59
2022/05/05 12:45:31;;;;;;;5.85;3.42;;;22.20;15.40;;;;;;5037696;28;20384;-59
2022/05/05 12:48:08;;;;;;;5.90;3.78;;;22.20;15.40;;;;;;5048108;28;20044;-60
2022/05/05 12:50:41;;;;;;;6.03;3.20;;;21.90;15.30;;;;;;5039102;28;20087;-58
2022/05/05 12:59:40;;;;;;;5.47;3.25;;;21.40;15.90;;;;;;5010263;28;20044;-58
2022/05/05 13:03:03;;;;;;;6.85;2.58;;;21.00;15.80;;;;;;5023447;28;20025;-59
2022/05/05 13:06:30;;;;;;;8.52;3.10;;;21.10;16.70;;;;;;5038574;28;20029;-59
2022/05/05 13:09:54;;;;;;;7.95;2.60;;;21.00;16.00;;;;;;5012681;28;20046;-59
2022/05/05 13:13:19;;;;;;;5.65;2.53;;;20.70;16.60;;;;;;5051682;28;20408;-59
2022/05/05 13:16:45;;;;;;;7.38;3.10;;;20.50;18.00;;;;;;5038538;28;20124;-59
2022/05/05 13:20:10;;;;;;;4.93;2.85;;;20.40;19.20;;;;;;5040527;28;20082;-60
2022/05/05 13:23:35;;;;;;;3.92;2.47;;;20.70;19.00;;;;;;5051875;28;20480;-59
2022/05/05 13:27:01;;;;;;;6.60;3.05;;;20.90;19.10;;;;;;5046232;28;20029;-59
2022/05/05 13:30:26;;;;;;;8.93;3.63;;;20.80;19.30;;;;;;5048125;28;20040;-59
2022/05/05 13:33:52;;;;;;;6.15;2.92;;;20.80;18.40;;;;;;5051542;28;20095;-59
2022/05/05 13:37:17;;;;;;;7.05;3.03;;;20.60;18.30;;;;;;5045690;28;20039;-59
2022/05/05 13:40:42;;;;;;;5.22;3.03;;;20.60;18.20;;;;;;5047552;28;20045;-59
2022/05/05 13:44:08;;;;;;;4.80;2.58;;;20.70;18.10;;;;;;5040075;28;20037;-59
2022/05/05 13:47:33;;;;;;;4.65;2.58;;;20.90;18.20;;;;;;5045852;28;20431;-59
2022/05/05 13:50:58;;;;;;;3.25;2.50;;;21.00;17.30;;;;;;5045767;28;20033;-59
2022/05/05 13:54:24;;;;;;;4.15;2.80;;;21.20;17.20;;;;;;5036710;28;20611;-59
2022/05/05 13:57:49;;;;;;;6.70;3.25;;;21.30;16.20;;;;;;5026729;28;20041;-59
2022/05/05 14:01:15;;;;;;;7.00;3.30;;;21.10;16.10;;;;;;5030731;28;20539;-59
2022/05/05 14:04:40;;;;;;;5.85;2.88;;;20.80;16.40;;;;;;5011231;28;20037;-59
2022/05/05 14:14:53;;;;;;;5.05;2.55;;;20.90;16.90;;;;;;5050691;28;20558;-59
2022/05/05 14:18:18;;;;;;;7.80;3.67;;;20.90;16.00;;;;;;5050311;28;20041;-58
2022/05/05 14:21:44;;;;;;;6.32;3.55;;;20.60;15.90;;;;;;5042525;28;20048;-59
2022/05/05 14:25:12;;;;;;;4.47;2.25;;;20.30;16.30;;;;;;5039172;28;20049;-59
2022/05/05 14:28:18;;;;;;;;;;;20.30;16.90;;;;;;5050787;28;20041;-59
2022/05/05 14:31:42;;;;;;;3.88;2.30;;;20.20;15.90;;;;;;5037089;28;19908;-59
2022/05/05 14:35:08;;;;;;;9.25;4.20;;;20.10;16.80;;;;;;5040703;28;20117;-59
2022/05/05 14:38:33;;;;;;;7.18;3.40;;;19.90;17.10;;;;;;5049996;28;20094;-59
2022/05/05 14:41:59;;;;;;;5.43;2.30;;;19.80;17.30;;;;;;5028013;28;20243;-59
2022/05/05 14:45:24;;;;;;;4.22;2.85;;;19.80;17.70;;;;;;5044173;28;20635;-59
2022/05/05 14:48:49;;;;;;;6.90;3.30;;;19.90;17.30;;;;;;5049910;28;20048;-59
2022/05/05 14:52:15;;;;;;;5.70;3.53;;;19.60;17.10;;;;;;5032165;28;20515;-59
2022/05/05 14:55:40;;;;;;;6.32;3.28;;;19.40;17.50;;;;;;5010349;28;20037;-59
2022/05/05 14:59:06;;;;;;;4.85;2.60;;;19.20;18.40;;;;;;5046163;28;20049;-59
2022/05/05 15:02:31;;;;;;;4.95;2.72;;;19.20;18.30;;;;;;5036142;28;20369;-59
2022/05/05 15:05:56;;;;;;;7.03;3.17;;;19.30;17.90;;;;;;5036678;28;20057;-59
2022/05/05 15:09:21;;;;;;;6.10;3.67;;;19.30;17.50;;;;;;5030440;28;20472;-60
2022/05/05 15:12:47;;;;;;;5.65;3.25;;;19.30;17.60;;;;;;5040913;28;20029;-71
2022/05/05 15:16:13;;;;;;;3.42;2.42;;;19.30;17.70;;;;;;5039406;28;20132;-71
2022/05/05 15:19:38;;;;;;;5.75;2.30;;;19.30;18.10;;;;;;5008840;28;20104;-71
2022/05/05 15:23:03;;;;;;;2.22;1.77;;;19.60;17.70;;;;;;5043880;28;20540;-72
2022/05/05 15:26:28;;;;;;;4.28;2.05;;;19.80;17.00;;;;;;5040934;28;20114;-71
2022/05/05 15:29:54;;;;;;;5.13;2.22;;;19.90;17.00;;;;;;5037641;28;20033;-71
2022/05/05 15:33:19;;;;;;;6.45;2.08;;;19.80;16.40;;;;;;5048025;28;20581;-71
2022/05/05 15:36:44;;;;;;;5.00;2.10;;;19.80;16.90;;;;;;5042708;28;20068;-71
2022/05/05 15:40:10;;;;;;;4.50;2.28;;;19.70;16.00;;;;;;5036840;28;20122;-72
2022/05/05 15:43:35;;;;;;;6.22;2.63;;;19.60;16.20;;;;;;5047985;28;20041;-69
2022/05/05 15:47:01;;;;;;;2.97;2.00;;;19.50;16.20;;;;;;5042476;28;20033;-70
2022/05/05 15:49:46;;;;;;;6.25;2.78;;;19.60;16.30;;;;;;5034815;28;20526;-59
2022/05/05 15:52:13;;;;;;;3.38;2.13;;;19.70;16.10;;;;;;5028557;28;20025;-59
2022/05/05 15:54:39;;;;;;;3.28;1.73;;;19.80;15.90;;;;;;5045526;28;20040;-59
2022/05/05 15:57:05;;;;;;;4.95;1.77;;;19.80;15.70;;;;;;5047701;28;20029;-59
2022/05/05 15:59:32;;;;;;;4.28;1.88;;;19.80;15.40;;;;;;5034761;28;20043;-59
2022/05/05 16:01:58;;;;;;;4.72;2.47;;;19.90;15.40;;;;;;5047832;28;20020;-59
2022/05/05 16:04:26;;;;;;;7.63;1.90;;;19.80;15.20;;;;;;5037645;28;20029;-59
2022/05/05 16:06:52;;;;;;;5.80;1.77;;;19.80;15.20;;;;;;5047824;28;20025;-59
2022/05/05 16:09:17;;;;;;;3.33;1.60;;;19.70;15.40;;;;;;5035554;28;20029;-58
2022/05/05 16:11:43;;;;;;;1.83;1.52;;;19.60;15.50;;;;;;5028335;28;20034;-59
2022/05/05 16:14:08;;;;;;;2.88;1.55;;;19.50;15.80;;;;;;5044921;28;20043;-59
2022/05/05 16:16:34;;;;;;;3.92;1.75;;;19.40;16.00;;;;;;4994163;28;995333;-59
2022/05/05 16:19:00;;;;;;;2.25;1.50;;;19.30;16.20;;;;;;5045749;28;20045;-60
2022/05/05 16:22:05;;;;;;;2.70;1.90;;;19.20;16.30;;;;;;5035815;28;20086;-59
2022/05/05 16:32:19;;;;;;;3.20;1.80;;;19.00;17.00;;;;;;5038661;28;20067;-59
2022/05/05 16:35:44;;;;;;;5.30;2.08;;;18.90;16.90;;;;;;5026249;28;20038;-59
2022/05/05 16:39:09;;;;;;;5.55;2.40;;;18.80;17.20;;;;;;5041692;28;20107;-59
2022/05/05 16:42:35;;;;;;;6.03;2.33;;;18.70;17.30;;;;;;5043336;28;20029;-59
2022/05/05 16:46:01;;;;;;;6.85;1.85;;;18.50;17.60;;;;;;5007299;28;20034;-60
2022/05/05 16:49:25;;;;;;;3.92;2.20;;;18.40;17.90;;;;;;5029433;28;20037;-60
2022/05/05 16:52:51;;;;;;;6.38;1.75;;;18.30;17.80;;;;;;5041249;28;20044;-60
2022/05/05 16:56:16;;;;;;;3.75;1.83;;;18.20;17.50;;;;;;5042919;28;20381;-58
2022/05/05 16:59:42;;;;;;;2.80;1.90;;;18.20;18.20;;;;;;5046901;28;20045;-58
2022/05/05 17:03:07;;;;;;;2.33;1.52;;;18.00;18.60;;;;;;5033779;28;20036;-57
2022/05/05 17:06:33;;;;;;;4.75;1.85;;;17.90;18.80;;;;;;5035363;28;20132;-59
2022/05/05 17:09:58;;;;;;;2.25;1.73;;;17.70;19.10;;;;;;5046785;28;20033;-58
2022/05/05 17:13:23;;;;;;;2.72;1.60;;;17.50;19.10;;;;;;5033629;28;20048;-58